Terminal Aerodrome Forecast
Issued by NWS Twin Cities, MN

Home | Current Version | Previous Version | Graphics & Text | Print | Product List | Glossary On
Versions: 1 2 3 4 5 6 7 8 9 10 11 12 13 14 15 16
831
FTUS43 KMPX 101120
TAFSTC
TAF
KSTC 101120Z 1012/1112 35005KT P6SM FEW150
     FM101400 03003KT P6SM BKN120
     FM101700 06004KT P6SM BKN080 OVC150
     FM110000 VRB02KT P6SM SCT050 BKN150=

USA.gov is the U.S. government's official web portal to all federal, state and local government web resources and services.